createdAt,value
2022-10-22T00:00:05.689Z,84.42
2022-10-22T00:01:38.828Z,84.46
2022-10-22T00:03:11.203Z,84.36
2022-10-22T00:06:19.698Z,84.44
2022-10-22T00:07:51.327Z,84.26
2022-10-22T00:09:22.960Z,84.38
2022-10-22T00:10:56.061Z,84.44
2022-10-22T00:12:27.936Z,84.79
2022-10-22T00:13:59.597Z,84.69
2022-10-22T00:15:31.209Z,84.58
2022-10-22T00:17:04.221Z,84.64
2022-10-22T00:18:38.466Z,84.74
2022-10-22T00:20:10.969Z,84.82
2022-10-22T00:21:42.600Z,84.93
2022-10-22T00:23:14.198Z,85.06
2022-10-22T00:24:45.798Z,85.02
2022-10-22T00:26:18.740Z,84.87
2022-10-22T00:27:50.413Z,84.79
2022-10-22T00:29:23.580Z,84.88
2022-10-22T00:30:56.685Z,84.69
2022-10-22T00:32:28.294Z,84.52
2022-10-22T00:34:01.433Z,84.69
2022-10-22T00:35:33.449Z,84.34
2022-10-22T00:37:05.239Z,84.82
2022-10-22T00:38:36.838Z,84.46
2022-10-22T00:40:10.231Z,84.82
2022-10-22T00:41:43.717Z,85.03
2022-10-22T00:43:17.797Z,84.58
2022-10-22T00:45:04.627Z,84.55
2022-10-22T00:46:36.222Z,85.04
2022-10-22T00:48:10.531Z,85.00
2022-10-22T00:49:42.891Z,84.97
2022-10-22T00:51:14.795Z,85.23
2022-10-22T00:52:47.479Z,85.16
2022-10-22T00:54:19.126Z,85.00
2022-10-22T00:55:53.663Z,85.09
2022-10-22T00:57:27.729Z,85.04
2022-10-22T00:59:02.201Z,85.25
2022-10-22T01:00:33.955Z,85.50
2022-10-22T01:02:05.692Z,85.87
2022-10-22T01:03:37.514Z,85.67
2022-10-22T01:05:09.842Z,85.47
2022-10-22T01:06:41.585Z,85.60
2022-10-22T01:08:25.238Z,85.53
2022-10-22T01:10:07.923Z,86.10
2022-10-22T01:11:52.618Z,86.04
2022-10-22T01:13:36.592Z,86.02
2022-10-22T01:15:24.509Z,86.02
2022-10-22T01:17:05.076Z,86.10
2022-10-22T01:18:45.405Z,86.05
2022-10-22T01:20:37.818Z,86.24
2022-10-22T01:22:16.782Z,86.39
2022-10-22T01:24:17.205Z,85.80
2022-10-22T01:25:58.397Z,86.23
2022-10-22T01:27:49.104Z,85.97
2022-10-22T01:29:27.523Z,86.07
2022-10-22T01:31:01.613Z,86.66
2022-10-22T01:32:39.820Z,86.38
2022-10-22T01:34:14.164Z,86.80
2022-10-22T01:35:46.015Z,86.66
2022-10-22T01:37:20.633Z,86.58
2022-10-22T01:38:53.413Z,86.42
2022-10-22T01:40:26.266Z,86.67
2022-10-22T01:41:58.281Z,86.36
2022-10-22T01:43:29.872Z,86.36
2022-10-22T01:45:10.138Z,86.32
2022-10-22T01:46:41.901Z,86.70
2022-10-22T01:48:34.712Z,86.56
2022-10-22T01:50:18.583Z,86.75
2022-10-22T01:52:02.845Z,86.58
2022-10-22T01:55:25.570Z,86.51
2022-10-22T01:57:07.387Z,86.63
2022-10-22T01:58:44.128Z,86.85
2022-10-22T02:00:18.975Z,86.88
2022-10-22T02:01:59.524Z,86.63
2022-10-22T02:03:39.074Z,87.00
2022-10-22T02:05:16.655Z,87.13
2022-10-22T02:06:51.453Z,87.34
2022-10-22T02:08:27.045Z,87.25
2022-10-22T02:10:00.600Z,87.28
2022-10-22T02:11:32.367Z,87.43
2022-10-22T02:13:08.263Z,87.30
2022-10-22T02:14:44.004Z,87.21
2022-10-22T02:16:23.811Z,86.82
2022-10-22T02:17:58.338Z,86.99
2022-10-22T02:19:38.520Z,87.33
2022-10-22T02:21:10.442Z,87.20
2022-10-22T02:22:42.871Z,86.97
2022-10-22T02:24:15.011Z,87.17
2022-10-22T02:25:52.157Z,87.48
2022-10-22T02:27:30.334Z,87.12
2022-10-22T02:29:08.344Z,87.37
2022-10-22T02:30:44.324Z,87.43
2022-10-22T02:32:22.985Z,87.48
2022-10-22T02:33:57.804Z,87.62
2022-10-22T02:35:30.601Z,87.96
2022-10-22T02:37:04.481Z,87.94
2022-10-22T02:38:37.205Z,87.70
2022-10-22T02:40:10.480Z,88.00
2022-10-22T02:41:42.489Z,88.04
2022-10-22T02:43:14.124Z,88.56
2022-10-22T02:44:45.754Z,88.45
2022-10-22T02:46:17.449Z,88.38
2022-10-22T02:47:50.569Z,88.43
2022-10-22T02:49:22.271Z,88.37
2022-10-22T02:50:53.847Z,88.96
2022-10-22T02:52:25.433Z,88.61
2022-10-22T02:53:57.073Z,88.76
2022-10-22T02:55:28.826Z,89.00
2022-10-22T02:57:00.435Z,89.02
2022-10-22T02:58:32.023Z,89.03
2022-10-22T03:00:04.648Z,89.08
2022-10-22T03:01:36.428Z,88.79
2022-10-22T03:03:09.434Z,89.24
2022-10-22T03:04:41.057Z,89.06
2022-10-22T03:06:14.046Z,89.05
2022-10-22T03:07:45.755Z,89.54
2022-10-22T03:09:21.262Z,89.21
2022-10-22T03:10:55.740Z,89.21
2022-10-22T03:12:27.454Z,89.47
2022-10-22T03:13:59.065Z,89.40
2022-10-22T03:15:30.702Z,89.31
2022-10-22T03:17:02.336Z,89.50
2022-10-22T03:18:35.420Z,89.34
2022-10-22T03:20:08.113Z,89.39
2022-10-22T03:21:42.660Z,89.57
2022-10-22T03:23:16.818Z,89.59
2022-10-22T03:24:51.049Z,90.01
2022-10-22T03:26:23.725Z,89.86
2022-10-22T03:28:00.794Z,89.76
2022-10-22T03:29:35.994Z,89.51
2022-10-22T03:31:07.677Z,89.74
2022-10-22T03:32:39.381Z,89.62
2022-10-22T03:34:13.412Z,90.11
2022-10-22T03:35:47.397Z,90.02
2022-10-22T03:37:19.505Z,90.32
2022-10-22T03:38:51.207Z,90.01
2022-10-22T03:40:23.000Z,90.03
2022-10-22T03:41:54.869Z,89.79
2022-10-22T03:43:26.779Z,89.80
2022-10-22T03:44:58.354Z,89.71
2022-10-22T03:46:30.069Z,90.05
2022-10-22T03:48:01.768Z,89.72
2022-10-22T03:49:35.225Z,89.90
2022-10-22T03:51:07.582Z,89.39
2022-10-22T03:52:40.178Z,89.64
2022-10-22T03:54:11.775Z,89.62
2022-10-22T03:55:43.389Z,89.51
2022-10-22T03:57:15.227Z,89.42
2022-10-22T03:58:46.819Z,89.68
2022-10-22T04:00:18.857Z,89.52
2022-10-22T04:01:50.496Z,89.89
2022-10-22T04:03:22.072Z,89.50
2022-10-22T04:04:55.037Z,89.52
2022-10-22T04:06:26.684Z,89.93
2022-10-22T04:07:58.270Z,89.94
2022-10-22T04:09:31.213Z,89.70
2022-10-22T04:11:03.217Z,89.84
2022-10-22T04:12:34.821Z,89.32
2022-10-22T04:14:06.419Z,89.38
2022-10-22T04:15:38.138Z,89.30
2022-10-22T04:17:09.842Z,89.26
2022-10-22T04:18:43.003Z,89.63
2022-10-22T04:20:16.054Z,89.38
2022-10-22T04:21:47.634Z,89.50
2022-10-22T04:23:19.368Z,89.04
2022-10-22T04:26:27.517Z,89.33
2022-10-22T04:27:59.170Z,89.01
2022-10-22T04:29:30.772Z,89.12
2022-10-22T04:31:08.276Z,88.94
2022-10-22T04:32:39.852Z,88.72
2022-10-22T04:34:11.507Z,88.94
2022-10-22T04:35:44.614Z,88.81
2022-10-22T04:37:16.243Z,89.18
2022-10-22T04:38:51.990Z,88.77
2022-10-22T04:40:23.727Z,89.35
2022-10-22T04:41:55.323Z,88.77
2022-10-22T04:43:27.032Z,88.74
2022-10-22T04:44:58.627Z,89.01
2022-10-22T04:46:33.696Z,89.00
2022-10-22T04:48:06.011Z,88.72
2022-10-22T04:49:37.628Z,88.62
2022-10-22T04:51:13.138Z,88.91
2022-10-22T04:52:44.729Z,89.14
2022-10-22T04:54:16.398Z,89.01
2022-10-22T04:55:48.011Z,89.54
2022-10-22T04:57:19.641Z,89.72
2022-10-22T04:58:53.846Z,89.28
2022-10-22T05:00:25.452Z,89.31
2022-10-22T05:01:57.058Z,89.42
2022-10-22T05:03:28.652Z,89.64
2022-10-22T05:05:00.245Z,89.45
2022-10-22T05:06:35.233Z,89.66
2022-10-22T05:08:06.811Z,89.60
2022-10-22T05:09:38.461Z,89.80
2022-10-22T05:11:14.484Z,89.72
2022-10-22T05:12:46.073Z,89.63
2022-10-22T05:14:19.483Z,89.47
2022-10-22T05:15:51.102Z,89.59
2022-10-22T05:17:22.710Z,89.60
2022-10-22T05:18:54.392Z,89.53
2022-10-22T05:20:26.026Z,89.28
2022-10-22T05:22:01.138Z,89.31
2022-10-22T05:23:32.745Z,89.28
2022-10-22T05:25:05.049Z,89.12
2022-10-22T05:26:36.796Z,89.12
2022-10-22T05:28:08.390Z,89.00
2022-10-22T05:29:40.411Z,89.25
2022-10-22T05:31:13.503Z,88.76
2022-10-22T05:32:45.182Z,89.26
2022-10-22T05:34:17.263Z,89.10
2022-10-22T05:35:49.064Z,88.78
2022-10-22T05:37:22.032Z,89.05
2022-10-22T05:38:54.196Z,89.05
2022-10-22T05:40:30.917Z,89.02
2022-10-22T05:42:03.157Z,89.21
2022-10-22T05:43:35.266Z,88.98
2022-10-22T05:45:08.170Z,88.86
2022-10-22T05:46:40.516Z,89.07
2022-10-22T05:48:12.130Z,88.80
2022-10-22T05:49:43.736Z,89.02
2022-10-22T05:51:15.461Z,89.08
2022-10-22T05:52:48.434Z,88.98
2022-10-22T05:54:22.063Z,88.50
2022-10-22T05:55:53.673Z,88.66
2022-10-22T05:57:25.304Z,88.87
2022-10-22T05:58:57.017Z,88.87
2022-10-22T06:00:28.713Z,88.60
2022-10-22T06:02:00.425Z,88.65
2022-10-22T06:03:32.799Z,88.94
2022-10-22T06:05:04.713Z,88.54
2022-10-22T06:06:39.513Z,88.93
2022-10-22T06:08:18.214Z,88.63
2022-10-22T06:09:51.092Z,88.99
2022-10-22T06:11:23.797Z,88.83
2022-10-22T06:12:55.516Z,88.96
2022-10-22T06:14:28.083Z,89.07
2022-10-22T06:15:59.661Z,89.11
2022-10-22T06:17:31.367Z,88.98
2022-10-22T06:19:03.281Z,88.77
2022-10-22T06:20:35.242Z,89.09
2022-10-22T06:22:06.884Z,89.13
2022-10-22T06:23:40.837Z,89.04
2022-10-22T06:25:14.086Z,88.83
2022-10-22T06:26:58.614Z,88.82
2022-10-22T06:28:30.419Z,89.06
2022-10-22T06:30:02.224Z,88.98
2022-10-22T06:31:36.904Z,88.90
2022-10-22T06:33:08.530Z,88.85
2022-10-22T06:34:40.197Z,88.85
2022-10-22T06:36:14.157Z,88.92
2022-10-22T06:37:47.415Z,89.01
2022-10-22T06:39:20.441Z,88.87
2022-10-22T06:40:52.055Z,88.58
2022-10-22T06:42:23.841Z,88.45
2022-10-22T06:43:57.176Z,88.33
2022-10-22T06:45:28.971Z,88.55
2022-10-22T06:47:00.638Z,88.11
2022-10-22T06:48:32.292Z,87.91
2022-10-22T06:50:04.320Z,87.79
2022-10-22T06:51:35.951Z,87.32
2022-10-22T06:53:07.711Z,87.41
2022-10-22T06:54:43.461Z,86.97
2022-10-22T06:56:17.519Z,86.86
2022-10-22T06:57:49.375Z,86.65
2022-10-22T06:59:21.000Z,86.84
2022-10-22T07:01:01.032Z,86.89
2022-10-22T07:02:32.492Z,86.55
2022-10-22T07:04:05.459Z,86.22
2022-10-22T07:05:37.273Z,86.20
2022-10-22T07:07:08.901Z,86.17
2022-10-22T07:08:41.676Z,85.93
2022-10-22T07:10:14.994Z,85.79
2022-10-22T07:11:46.758Z,85.32
2022-10-22T07:13:18.403Z,85.30
2022-10-22T07:14:50.111Z,85.13
2022-10-22T07:16:22.177Z,85.43
2022-10-22T07:17:53.821Z,84.78
2022-10-22T07:19:25.448Z,85.13
2022-10-22T07:20:57.234Z,84.85
2022-10-22T07:22:28.977Z,84.43
2022-10-22T07:24:00.763Z,84.16
2022-10-22T07:25:33.734Z,84.08
2022-10-22T07:27:09.378Z,84.14
2022-10-22T07:28:43.837Z,84.11
2022-10-22T07:30:15.571Z,84.07
2022-10-22T07:31:47.186Z,83.50
2022-10-22T07:33:18.775Z,83.95
2022-10-22T07:34:50.393Z,83.28
2022-10-22T07:36:22.036Z,83.24
2022-10-22T07:37:53.719Z,83.26
2022-10-22T07:39:25.895Z,83.20
2022-10-22T07:40:59.038Z,83.03
2022-10-22T07:42:30.700Z,83.11
2022-10-22T07:44:02.472Z,83.21
2022-10-22T07:45:34.115Z,82.94
2022-10-22T07:47:05.835Z,83.39
2022-10-22T07:48:37.926Z,83.16
2022-10-22T07:50:09.959Z,83.37
2022-10-22T07:51:41.789Z,83.16
2022-10-22T07:53:13.406Z,83.47
2022-10-22T07:54:45.013Z,83.50
2022-10-22T07:56:18.037Z,83.41
2022-10-22T07:57:50.818Z,83.15
2022-10-22T07:59:22.617Z,82.85
2022-10-22T08:00:56.301Z,83.08
2022-10-22T08:02:27.911Z,82.79
2022-10-22T08:03:59.642Z,82.13
2022-10-22T08:05:31.313Z,81.87
2022-10-22T08:07:02.956Z,81.44
2022-10-22T08:08:34.836Z,79.96
2022-10-22T08:10:08.099Z,80.27
2022-10-22T08:11:41.083Z,80.49
2022-10-22T08:13:12.808Z,79.52
2022-10-22T08:14:44.410Z,79.48
2022-10-22T08:16:16.057Z,79.01
2022-10-22T08:17:47.712Z,78.53
2022-10-22T08:19:21.112Z,78.57
2022-10-22T08:20:53.493Z,78.03
2022-10-22T08:22:25.166Z,78.34
2022-10-22T08:23:56.827Z,78.46
2022-10-22T08:25:28.526Z,77.93
2022-10-22T08:27:01.503Z,77.85
2022-10-22T08:28:36.894Z,77.65
2022-10-22T08:30:09.721Z,77.44
2022-10-22T08:31:41.385Z,77.30
2022-10-22T08:33:12.996Z,77.17
2022-10-22T08:34:44.600Z,76.87
2022-10-22T08:36:16.226Z,77.08
2022-10-22T08:37:47.865Z,76.88
2022-10-22T08:39:19.480Z,76.25
2022-10-22T08:40:54.610Z,76.61
2022-10-22T08:42:49.321Z,75.93
2022-10-22T08:44:46.673Z,75.18
2022-10-22T08:46:44.762Z,74.89
2022-10-22T08:48:28.113Z,75.14
2022-10-22T08:50:00.484Z,75.22
2022-10-22T08:51:35.829Z,74.79
2022-10-22T08:53:13.894Z,74.67
2022-10-22T08:54:51.520Z,74.29
2022-10-22T08:56:23.664Z,74.47
2022-10-22T08:58:01.966Z,73.87
2022-10-22T08:59:42.105Z,73.79
2022-10-22T09:01:16.400Z,73.84
2022-10-22T09:02:59.388Z,73.62
2022-10-22T09:04:37.734Z,73.06
2022-10-22T09:06:14.006Z,73.17
2022-10-22T09:07:50.048Z,73.16
2022-10-22T09:09:23.934Z,72.09
2022-10-22T09:11:01.500Z,72.30
2022-10-22T09:12:33.562Z,72.58
2022-10-22T09:14:11.951Z,71.80
2022-10-22T09:15:46.490Z,72.06
2022-10-22T09:17:27.128Z,71.93
2022-10-22T09:19:07.755Z,71.77
2022-10-22T09:20:49.293Z,71.99
2022-10-22T09:22:30.305Z,71.69
2022-10-22T09:24:11.490Z,71.84
2022-10-22T09:25:45.173Z,72.22
2022-10-22T09:27:19.507Z,71.20
2022-10-22T09:28:52.049Z,71.44
2022-10-22T09:30:26.964Z,71.18
2022-10-22T09:31:58.674Z,71.58
2022-10-22T09:33:31.703Z,72.03
2022-10-22T09:35:03.565Z,71.24
2022-10-22T09:36:37.820Z,71.08
2022-10-22T09:38:09.477Z,70.93
2022-10-22T09:39:44.853Z,70.67
2022-10-22T09:41:17.718Z,71.10
2022-10-22T09:42:49.697Z,71.20
2022-10-22T09:44:21.585Z,70.49
2022-10-22T09:45:59.436Z,70.37
2022-10-22T09:47:43.668Z,70.33
2022-10-22T09:49:33.277Z,70.56
2022-10-22T09:51:12.868Z,70.43
2022-10-22T09:52:44.752Z,70.57
2022-10-22T09:54:19.654Z,69.83
2022-10-22T09:55:53.711Z,69.69
2022-10-22T09:57:27.385Z,69.29
2022-10-22T09:58:59.245Z,69.40
2022-10-22T10:00:30.996Z,69.63
2022-10-22T10:02:26.652Z,69.21
2022-10-22T10:04:09.795Z,69.41
2022-10-22T10:05:43.940Z,69.10
2022-10-22T10:07:18.931Z,69.17
2022-10-22T10:08:50.933Z,68.81
2022-10-22T10:10:34.629Z,68.59
2022-10-22T10:12:17.025Z,68.26
2022-10-22T10:13:59.733Z,68.16
2022-10-22T10:15:40.097Z,67.75
2022-10-22T10:17:24.117Z,67.73
2022-10-22T10:19:17.424Z,67.13
2022-10-22T10:20:57.484Z,66.82
2022-10-22T10:22:47.081Z,66.76
2022-10-22T10:24:27.633Z,66.81
2022-10-22T10:26:06.341Z,67.28
2022-10-22T10:27:42.883Z,67.03
2022-10-22T10:29:29.781Z,66.48
2022-10-22T10:31:11.842Z,66.21
2022-10-22T10:32:55.134Z,66.37
2022-10-22T10:34:35.476Z,66.38
2022-10-22T10:36:16.633Z,66.47
2022-10-22T10:38:02.343Z,66.64
2022-10-22T10:39:44.231Z,66.83
2022-10-22T10:41:29.038Z,66.07
2022-10-22T10:43:06.888Z,66.18
2022-10-22T10:44:59.610Z,66.35
2022-10-22T10:46:43.539Z,66.43
2022-10-22T10:48:48.448Z,66.08
2022-10-22T10:50:26.776Z,66.15
2022-10-22T10:52:06.491Z,66.41
2022-10-22T10:53:52.077Z,66.14
2022-10-22T10:55:29.807Z,66.29
2022-10-22T10:57:08.134Z,66.42
2022-10-22T10:58:49.963Z,65.47
2022-10-22T11:00:22.386Z,65.69
2022-10-22T11:02:09.825Z,65.74
2022-10-22T11:04:15.822Z,66.04
2022-10-22T11:05:54.002Z,65.64
2022-10-22T11:07:45.465Z,65.80
2022-10-22T11:09:24.570Z,65.56
2022-10-22T11:11:01.175Z,65.93
2022-10-22T11:12:39.637Z,64.98
2022-10-22T11:14:16.952Z,65.18
2022-10-22T11:15:55.541Z,64.90
2022-10-22T11:17:35.536Z,65.39
2022-10-22T11:19:22.962Z,65.71
2022-10-22T11:21:17.936Z,65.83
2022-10-22T11:23:18.280Z,65.66
2022-10-22T11:24:53.707Z,64.87
2022-10-22T11:26:37.134Z,64.40
2022-10-22T11:29:54.099Z,65.04
2022-10-22T11:31:26.835Z,64.78
2022-10-22T11:33:01.977Z,64.96
2022-10-22T11:34:42.300Z,64.58
2022-10-22T11:36:15.797Z,64.09
2022-10-22T11:37:48.287Z,64.15
2022-10-22T11:39:38.109Z,63.82
2022-10-22T11:41:11.736Z,63.70
2022-10-22T11:42:47.908Z,63.06
2022-10-22T11:44:23.179Z,63.38
2022-10-22T11:46:01.977Z,63.07
2022-10-22T11:47:36.003Z,62.83
2022-10-22T11:49:19.557Z,62.72
2022-10-22T11:50:57.427Z,63.03
2022-10-22T11:52:40.773Z,62.96
2022-10-22T11:54:42.204Z,62.67
2022-10-22T11:56:24.925Z,62.40
2022-10-22T11:57:59.173Z,62.45
2022-10-22T11:59:39.338Z,62.39
2022-10-22T12:01:41.594Z,62.28
2022-10-22T12:03:17.844Z,62.81
2022-10-22T12:04:49.563Z,62.89
2022-10-22T12:06:25.088Z,62.32
2022-10-22T12:08:00.008Z,61.80
2022-10-22T12:09:34.265Z,61.99
2022-10-22T12:11:17.037Z,62.12
2022-10-22T12:12:55.781Z,61.17
2022-10-22T12:14:32.564Z,61.86
2022-10-22T12:16:05.331Z,62.00
2022-10-22T12:17:37.000Z,61.97
2022-10-22T12:19:14.929Z,61.11
2022-10-22T12:20:50.615Z,61.31
2022-10-22T12:22:27.213Z,61.08
2022-10-22T12:23:59.507Z,61.19
2022-10-22T12:25:35.606Z,61.36
2022-10-22T12:27:22.343Z,61.22
2022-10-22T12:28:58.589Z,60.90
2022-10-22T12:30:34.475Z,61.06
2022-10-22T12:32:06.471Z,61.25
2022-10-22T12:33:38.787Z,60.83
2022-10-22T12:35:16.755Z,60.41
2022-10-22T12:36:50.039Z,60.61
2022-10-22T12:38:25.458Z,60.67
2022-10-22T12:39:57.151Z,60.46
2022-10-22T12:41:34.476Z,60.85
2022-10-22T12:43:12.439Z,60.74
2022-10-22T12:44:44.938Z,60.32
2022-10-22T12:46:17.020Z,60.16
2022-10-22T12:47:50.256Z,60.35
2022-10-22T12:49:25.271Z,59.58
2022-10-22T12:50:59.422Z,59.40
2022-10-22T12:52:31.107Z,59.04
2022-10-22T12:54:08.246Z,59.04
2022-10-22T12:55:40.047Z,59.32
2022-10-22T12:57:14.685Z,58.89
2022-10-22T12:58:51.867Z,59.01
2022-10-22T13:00:26.765Z,59.10
2022-10-22T13:01:58.929Z,58.63
2022-10-22T13:03:34.778Z,57.42
2022-10-22T13:05:21.712Z,57.20
2022-10-22T13:07:05.977Z,56.95
2022-10-22T13:08:38.839Z,57.82
2022-10-22T13:10:20.073Z,56.71
2022-10-22T13:11:54.183Z,56.46
2022-10-22T13:13:30.975Z,56.75
2022-10-22T13:15:22.941Z,55.67
2022-10-22T13:17:12.138Z,55.51
2022-10-22T13:18:45.171Z,55.49
2022-10-22T13:20:20.340Z,55.79
2022-10-22T13:21:54.021Z,55.81
2022-10-22T13:23:28.085Z,55.95
2022-10-22T13:25:21.051Z,55.59
2022-10-22T13:26:54.528Z,55.17
2022-10-22T13:28:27.027Z,54.65
2022-10-22T13:30:02.858Z,55.23
2022-10-22T13:31:37.685Z,55.09
2022-10-22T13:33:28.769Z,54.77
2022-10-22T13:35:02.215Z,55.24
2022-10-22T13:36:34.023Z,55.27
2022-10-22T13:38:11.536Z,55.50
2022-10-22T13:39:43.144Z,55.62
2022-10-22T13:41:23.088Z,55.62
2022-10-22T13:42:56.078Z,55.84
2022-10-22T13:44:27.682Z,55.67
2022-10-22T13:46:00.301Z,55.91
2022-10-22T13:47:33.001Z,55.71
2022-10-22T13:49:04.818Z,55.67
2022-10-22T13:50:36.421Z,55.73
2022-10-22T13:52:10.598Z,55.96
2022-10-22T13:53:43.602Z,55.80
2022-10-22T13:55:17.800Z,56.30
2022-10-22T13:56:49.436Z,56.67
2022-10-22T13:58:26.589Z,56.73
2022-10-22T13:59:58.191Z,56.83
2022-10-22T14:01:30.093Z,57.20
2022-10-22T14:03:01.757Z,57.03
2022-10-22T14:04:38.035Z,57.26
2022-10-22T14:06:13.170Z,57.18
2022-10-22T14:07:45.322Z,57.23
2022-10-22T14:09:17.991Z,57.44
2022-10-22T14:10:49.604Z,57.53
2022-10-22T14:12:21.380Z,57.15
2022-10-22T14:13:54.361Z,57.41
2022-10-22T14:15:28.618Z,57.48
2022-10-22T14:17:00.252Z,57.39
2022-10-22T14:18:33.056Z,57.27
2022-10-22T14:20:05.250Z,57.13
2022-10-22T14:21:38.014Z,56.95
2022-10-22T14:23:14.590Z,56.65
2022-10-22T14:24:47.379Z,57.09
2022-10-22T14:26:22.530Z,56.59
2022-10-22T14:27:54.712Z,56.86
2022-10-22T14:29:27.686Z,56.86
2022-10-22T14:30:59.576Z,56.69
2022-10-22T14:32:31.320Z,56.83
2022-10-22T14:34:02.948Z,56.75
2022-10-22T14:35:34.614Z,56.16
2022-10-22T14:37:13.403Z,56.47
2022-10-22T14:38:46.895Z,56.56
2022-10-22T14:40:20.601Z,56.49
2022-10-22T14:41:52.350Z,56.74
2022-10-22T14:43:26.343Z,56.35
2022-10-22T14:44:59.304Z,56.18
2022-10-22T14:46:31.835Z,56.62
2022-10-22T14:48:03.903Z,56.78
2022-10-22T14:49:35.593Z,56.62
2022-10-22T14:51:07.774Z,56.54
2022-10-22T14:52:40.095Z,56.71
2022-10-22T14:54:12.217Z,56.70
2022-10-22T14:55:46.998Z,56.84
2022-10-22T14:57:18.622Z,57.25
2022-10-22T14:58:50.383Z,57.13
2022-10-22T15:00:23.771Z,57.37
2022-10-22T15:01:55.537Z,57.33
2022-10-22T15:03:27.165Z,57.30
2022-10-22T15:04:58.882Z,57.56
2022-10-22T15:06:30.704Z,57.40
2022-10-22T15:08:02.534Z,57.44
2022-10-22T15:09:34.141Z,57.63
2022-10-22T15:11:07.682Z,57.65
2022-10-22T15:12:39.480Z,57.66
2022-10-22T15:14:11.248Z,57.82
2022-10-22T15:15:44.285Z,57.84
2022-10-22T15:17:17.175Z,58.14
2022-10-22T15:18:48.950Z,58.40
2022-10-22T15:20:20.763Z,58.46
2022-10-22T15:21:52.574Z,58.71
2022-10-22T15:23:24.562Z,58.72
2022-10-22T15:24:56.176Z,58.99
2022-10-22T15:26:29.014Z,58.90
2022-10-22T15:28:04.649Z,59.18
2022-10-22T15:29:40.044Z,59.34
2022-10-22T15:31:14.968Z,59.35
2022-10-22T15:32:46.676Z,59.75
2022-10-22T15:34:20.719Z,59.95
2022-10-22T15:35:52.468Z,60.01
2022-10-22T15:37:24.247Z,60.03
2022-10-22T15:38:55.868Z,60.17
2022-10-22T15:40:27.745Z,60.34
2022-10-22T15:42:00.289Z,60.58
2022-10-22T15:43:32.280Z,60.77
2022-10-22T15:45:04.469Z,60.90
2022-10-22T15:46:37.569Z,60.78
2022-10-22T15:48:11.394Z,61.11
2022-10-22T15:49:45.792Z,61.11
2022-10-22T15:51:19.273Z,61.21
2022-10-22T15:52:50.966Z,61.29
2022-10-22T15:54:25.600Z,61.25
2022-10-22T15:55:57.177Z,61.44
2022-10-22T15:57:28.795Z,61.51
2022-10-22T15:59:04.827Z,61.50
2022-10-22T16:00:36.515Z,61.68
2022-10-22T16:02:10.705Z,61.64
2022-10-22T16:03:42.318Z,61.94
2022-10-22T16:05:13.986Z,61.95
2022-10-22T16:06:48.195Z,62.24
2022-10-22T16:08:19.878Z,62.35
2022-10-22T16:09:54.785Z,62.44
2022-10-22T16:11:28.837Z,62.39
2022-10-22T16:13:00.556Z,62.73
2022-10-22T16:14:32.197Z,62.77
2022-10-22T16:16:06.642Z,62.90
2022-10-22T16:17:39.654Z,63.02
2022-10-22T16:19:12.956Z,63.20
2022-10-22T16:20:44.706Z,63.32
2022-10-22T16:22:16.377Z,63.59
2022-10-22T16:23:48.319Z,63.74
2022-10-22T16:25:19.939Z,63.89
2022-10-22T16:26:53.075Z,64.17
2022-10-22T16:28:24.735Z,64.35
2022-10-22T16:29:56.375Z,64.46
2022-10-22T16:31:28.316Z,64.74
2022-10-22T16:33:03.424Z,64.72
2022-10-22T16:34:35.361Z,64.87
2022-10-22T16:36:07.917Z,65.15
2022-10-22T16:37:39.845Z,65.19
2022-10-22T16:39:12.244Z,65.31
2022-10-22T16:40:44.255Z,65.63
2022-10-22T16:42:15.957Z,65.85
2022-10-22T16:43:49.491Z,65.95
2022-10-22T16:45:21.113Z,65.75
2022-10-22T16:46:52.773Z,66.29
2022-10-22T16:48:25.805Z,66.33
2022-10-22T16:50:00.725Z,66.40
2022-10-22T16:51:32.787Z,66.37
2022-10-22T16:53:04.445Z,66.39
2022-10-22T16:54:36.188Z,66.59
2022-10-22T16:56:08.915Z,66.69
2022-10-22T16:57:40.823Z,66.79
2022-10-22T16:59:12.633Z,66.74
2022-10-22T17:00:44.329Z,66.51
2022-10-22T17:02:16.088Z,66.78
2022-10-22T17:03:49.065Z,66.74
2022-10-22T17:05:21.541Z,66.79
2022-10-22T17:06:53.202Z,66.99
2022-10-22T17:08:25.003Z,67.10
2022-10-22T17:09:56.635Z,67.41
2022-10-22T17:11:30.196Z,67.39
2022-10-22T17:13:02.229Z,67.45
2022-10-22T17:14:34.326Z,67.79
2022-10-22T17:16:08.917Z,67.83
2022-10-22T17:17:40.840Z,67.88
2022-10-22T17:19:15.834Z,67.89
2022-10-22T17:20:47.476Z,67.76
2022-10-22T17:22:19.129Z,67.98
2022-10-22T17:23:54.633Z,68.04
2022-10-22T17:25:36.112Z,68.15
2022-10-22T17:27:07.845Z,68.21
2022-10-22T17:28:39.613Z,68.21
2022-10-22T17:30:16.466Z,68.33
2022-10-22T17:31:48.081Z,68.13
2022-10-22T17:33:19.734Z,68.28
2022-10-22T17:34:52.740Z,68.49
2022-10-22T17:36:25.824Z,68.60
2022-10-22T17:37:57.438Z,68.49
2022-10-22T17:39:29.103Z,68.76
2022-10-22T17:41:04.343Z,68.43
2022-10-22T17:42:38.589Z,68.35
2022-10-22T17:44:12.178Z,68.27
2022-10-22T17:45:43.794Z,68.28
2022-10-22T17:47:15.531Z,68.64
2022-10-22T17:48:49.656Z,68.60
2022-10-22T17:50:22.746Z,68.61
2022-10-22T17:51:54.566Z,68.47
2022-10-22T17:53:26.356Z,68.60
2022-10-22T17:54:58.013Z,68.49
2022-10-22T17:56:30.296Z,68.47
2022-10-22T17:58:02.659Z,68.54
2022-10-22T17:59:35.161Z,68.81
2022-10-22T18:01:07.164Z,68.97
2022-10-22T18:02:39.922Z,69.08
2022-10-22T18:04:14.804Z,69.10
2022-10-22T18:05:47.866Z,69.09
2022-10-22T18:07:20.728Z,69.34
2022-10-22T18:10:29.786Z,69.22
2022-10-22T18:12:01.444Z,69.27
2022-10-22T18:13:33.305Z,69.23
2022-10-22T18:15:05.803Z,69.57
2022-10-22T18:16:37.604Z,69.60
2022-10-22T18:18:09.350Z,69.72
2022-10-22T18:19:41.027Z,69.83
2022-10-22T18:21:14.455Z,70.08
2022-10-22T18:22:48.961Z,70.11
2022-10-22T18:24:20.631Z,70.24
2022-10-22T18:25:52.582Z,70.04
2022-10-22T18:27:24.483Z,70.25
2022-10-22T18:28:57.444Z,70.38
2022-10-22T18:30:29.046Z,70.40
2022-10-22T18:32:00.665Z,70.48
2022-10-22T18:33:32.315Z,70.38
2022-10-22T18:35:04.804Z,70.30
2022-10-22T18:36:38.144Z,70.53
2022-10-22T18:38:10.623Z,70.42
2022-10-22T18:39:42.268Z,70.34
2022-10-22T18:41:13.897Z,70.51
2022-10-22T18:42:45.907Z,70.08
2022-10-22T18:44:17.996Z,69.90
2022-10-22T18:45:49.879Z,70.02
2022-10-22T18:47:21.563Z,69.67
2022-10-22T18:48:53.905Z,70.10
2022-10-22T18:50:25.613Z,69.82
2022-10-22T18:51:58.680Z,69.83
2022-10-22T18:53:30.786Z,69.91
2022-10-22T18:55:02.520Z,69.79
2022-10-22T18:56:34.131Z,70.17
2022-10-22T18:58:05.915Z,69.93
2022-10-22T18:59:37.665Z,70.11
2022-10-22T19:01:10.008Z,69.81
2022-10-22T19:02:42.813Z,70.02
2022-10-22T19:04:14.998Z,69.92
2022-10-22T19:05:49.157Z,70.21
2022-10-22T19:07:25.253Z,69.98
2022-10-22T19:08:56.972Z,69.91
2022-10-22T19:10:28.886Z,70.24
2022-10-22T19:12:01.028Z,70.14
2022-10-22T19:13:32.685Z,70.18
2022-10-22T19:15:05.177Z,70.28
2022-10-22T19:16:39.879Z,70.19
2022-10-22T19:18:13.233Z,70.46
2022-10-22T19:19:45.148Z,70.43
2022-10-22T19:21:17.140Z,70.44
2022-10-22T19:22:50.944Z,70.92
2022-10-22T19:24:22.694Z,70.91
2022-10-22T19:26:01.073Z,71.44
2022-10-22T19:27:32.717Z,71.56
2022-10-22T19:29:04.520Z,71.63
2022-10-22T19:30:40.052Z,71.26
2022-10-22T19:32:11.766Z,71.68
2022-10-22T19:33:43.474Z,71.88
2022-10-22T19:35:15.538Z,71.60
2022-10-22T19:36:51.495Z,71.77
2022-10-22T19:38:29.564Z,71.60
2022-10-22T19:40:01.551Z,71.45
2022-10-22T19:41:33.645Z,71.38
2022-10-22T19:43:05.250Z,71.64
2022-10-22T19:44:36.889Z,71.60
2022-10-22T19:46:08.723Z,71.71
2022-10-22T19:47:42.146Z,71.59
2022-10-22T19:49:16.578Z,71.84
2022-10-22T19:50:58.243Z,71.70
2022-10-22T19:52:29.823Z,72.06
2022-10-22T19:54:05.687Z,72.11
2022-10-22T19:55:42.697Z,72.05
2022-10-22T19:57:16.215Z,71.84
2022-10-22T19:58:47.989Z,72.05
2022-10-22T20:00:20.075Z,71.76
2022-10-22T20:01:51.756Z,72.10
2022-10-22T20:03:23.355Z,71.87
2022-10-22T20:04:54.980Z,71.79
2022-10-22T20:06:26.849Z,72.24
2022-10-22T20:07:59.184Z,72.02
2022-10-22T20:09:32.347Z,72.05
2022-10-22T20:11:04.629Z,72.18
2022-10-22T20:12:36.472Z,72.05
2022-10-22T20:14:08.192Z,72.25
2022-10-22T20:15:39.849Z,72.31
2022-10-22T20:17:12.679Z,72.50
2022-10-22T20:18:44.539Z,72.70
2022-10-22T20:20:16.426Z,73.17
2022-10-22T20:21:50.453Z,72.80
2022-10-22T20:23:22.207Z,72.85
2022-10-22T20:24:55.254Z,72.88